Time;durP1;ratioP1;P1;durP2;ratioP2;P2;SDS_P1;SDS_P2;PMS_P1;PMS_P2;Temp;Humidity;BMP_temperature;BMP_pressure;BME280_temperature;BME280_humidity;BME280_pressure;Samples;Min_cycle;Max_cycle;Signal;HPM_P1;HPM_P2
2021/12/06 00:00:12;;;;;;;28.35;17.45;;;2.00;99.90;;;;;;5115004;28;20081;-71
2021/12/06 00:02:39;;;;;;;32.15;17.85;;;2.00;99.90;;;;;;5114109;28;20510;-71
2021/12/06 00:05:07;;;;;;;29.95;17.17;;;2.00;99.90;;;;;;5153545;27;20210;-71
2021/12/06 00:07:34;;;;;;;32.42;19.75;;;2.00;99.90;;;;;;5135180;27;20650;-71
2021/12/06 00:10:03;;;;;;;27.55;16.77;;;2.00;99.90;;;;;;5134739;27;20080;-72
2021/12/06 00:12:29;;;;;;;25.23;16.30;;;2.00;99.90;;;;;;5132241;27;20079;-72
2021/12/06 00:14:56;;;;;;;29.30;16.85;;;2.00;99.90;;;;;;5114688;28;20051;-71
2021/12/06 00:17:24;;;;;;;26.70;16.30;;;2.00;99.90;;;;;;5114065;28;20134;-72
2021/12/06 00:19:51;;;;;;;30.88;16.77;;;2.00;99.90;;;;;;5114577;28;20062;-72
2021/12/06 00:22:22;;;;;;;29.50;17.92;;;2.00;99.90;;;;;;5123119;27;20090;-72
2021/12/06 00:24:50;;;;;;;28.50;17.23;;;2.00;99.90;;;;;;5156084;27;20447;-71
2021/12/06 00:27:18;;;;;;;29.10;17.73;;;2.00;99.90;;;;;;5156298;27;20082;-72
2021/12/06 00:29:46;;;;;;;27.05;16.52;;;2.00;99.90;;;;;;5155326;27;20054;-71
2021/12/06 00:32:13;;;;;;;31.52;18.02;;;2.00;99.90;;;;;;5156296;27;20050;-71
2021/12/06 00:34:41;;;;;;;26.13;16.70;;;2.00;99.90;;;;;;5156211;27;20054;-71
2021/12/06 00:37:18;;;;;;;28.48;16.83;;;2.00;99.90;;;;;;5155702;27;20058;-71
2021/12/06 00:39:47;;;;;;;27.77;16.73;;;2.00;99.90;;;;;;5155693;27;20058;-72
2021/12/06 00:42:14;;;;;;;27.15;16.83;;;2.00;99.90;;;;;;5156084;27;20078;-71
2021/12/06 00:44:42;;;;;;;29.80;16.77;;;2.00;99.90;;;;;;5155108;27;20133;-71
2021/12/06 00:47:10;;;;;;;28.80;16.00;;;2.00;99.90;;;;;;5155913;27;20074;-71
2021/12/06 00:49:36;;;;;;;27.40;16.83;;;2.00;99.90;;;;;;5155678;27;20217;-71
2021/12/06 00:52:04;;;;;;;27.38;16.85;;;2.10;99.90;;;;;;5153473;27;20046;-71
2021/12/06 00:54:34;;;;;;;30.55;18.38;;;2.00;99.90;;;;;;5134889;27;20046;-71
2021/12/06 00:57:02;;;;;;;29.48;18.30;;;2.10;99.90;;;;;;5135470;27;20179;-71
2021/12/06 00:59:29;;;;;;;28.88;16.85;;;2.50;99.90;;;;;;5138622;27;20051;-71
2021/12/06 01:01:57;;;;;;;28.92;16.90;;;2.10;99.90;;;;;;5138510;27;20043;-71
2021/12/06 01:04:24;;;;;;;26.85;17.58;;;2.10;99.90;;;;;;5139330;27;20450;-73
2021/12/06 01:06:51;;;;;;;30.52;17.20;;;2.10;99.90;;;;;;5138159;27;20081;-72
2021/12/06 01:09:18;;;;;;;31.08;16.45;;;2.10;99.90;;;;;;5138777;27;20133;-71
2021/12/06 01:11:45;;;;;;;30.73;18.08;;;2.20;99.90;;;;;;5138286;27;20078;-71
2021/12/06 01:14:12;;;;;;;28.77;17.63;;;2.10;99.90;;;;;;5139007;27;20232;-71
2021/12/06 01:16:39;;;;;;;26.10;16.08;;;2.20;99.90;;;;;;5138448;27;20145;-71
2021/12/06 01:19:07;;;;;;;28.45;17.55;;;2.20;99.90;;;;;;5138238;27;20047;-71
2021/12/06 01:21:44;;;;;;;30.85;17.95;;;2.20;99.90;;;;;;5138436;27;20091;-71
2021/12/06 01:24:12;;;;;;;27.15;15.65;;;2.10;99.90;;;;;;5135423;27;20107;-72
2021/12/06 01:27:03;;;;;;;28.42;17.50;;;2.20;99.90;;;;;;5117049;27;20129;-71
2021/12/06 01:30:03;;;;;;;25.20;15.52;;;2.10;99.90;;;;;;5117708;27;20055;-71
2021/12/06 01:33:00;;;;;;;28.65;15.63;;;2.10;99.90;;;;;;5117737;27;20051;-71
2021/12/06 01:40:56;;;;;;;24.13;15.48;;;2.10;99.90;;;;;;5091063;27;20057;-71
2021/12/06 01:43:23;;;;;;;26.77;15.40;;;2.10;99.90;;;;;;5117590;27;20137;-71
2021/12/06 01:45:50;;;;;;;29.73;18.33;;;2.10;99.90;;;;;;5117358;27;20092;-71
2021/12/06 01:48:16;;;;;;;29.55;17.60;;;2.10;99.90;;;;;;5116812;27;20082;-71
2021/12/06 01:50:45;;;;;;;30.58;16.20;;;2.10;99.90;;;;;;5117355;27;20499;-71
2021/12/06 01:53:12;;;;;;;31.10;16.98;;;2.10;99.90;;;;;;5140142;27;20443;-71
2021/12/06 01:55:40;;;;;;;28.92;17.35;;;2.10;99.90;;;;;;5133575;27;20206;-71
2021/12/06 01:58:08;;;;;;;29.73;17.33;;;2.10;99.90;;;;;;5134383;27;20051;-71
2021/12/06 02:00:40;;;;;;;24.98;15.32;;;2.10;99.90;;;;;;5134037;27;20110;-71
2021/12/06 02:03:07;;;;;;;29.33;16.58;;;2.00;99.90;;;;;;5133820;27;20090;-71
2021/12/06 02:05:36;;;;;;;30.45;17.58;;;2.00;99.90;;;;;;5134273;27;20134;-72
2021/12/06 02:08:05;;;;;;;31.13;17.73;;;2.10;99.90;;;;;;5133332;27;20050;-72
2021/12/06 02:10:33;;;;;;;29.98;17.38;;;2.10;99.90;;;;;;5134319;27;20047;-72
2021/12/06 02:13:00;;;;;;;27.52;16.52;;;2.10;99.90;;;;;;5134220;27;20054;-71
2021/12/06 02:15:38;;;;;;;29.38;17.05;;;2.10;99.90;;;;;;5133433;27;20047;-71
2021/12/06 02:18:11;;;;;;;33.70;17.17;;;2.10;99.90;;;;;;5133808;27;20051;-71
2021/12/06 02:20:46;;;;;;;32.08;18.60;;;2.10;99.90;;;;;;5133666;27;20047;-71
2021/12/06 02:23:15;;;;;;;32.95;18.10;;;2.10;99.90;;;;;;5114367;27;20500;-71
2021/12/06 02:25:42;;;;;;;36.20;19.75;;;2.10;99.90;;;;;;5093125;28;20087;-71
2021/12/06 02:28:09;;;;;;;34.80;18.00;;;2.10;99.90;;;;;;5092925;28;20465;-72
2021/12/06 02:30:36;;;;;;;32.83;19.45;;;2.00;99.90;;;;;;5092269;28;20134;-71
2021/12/06 02:33:03;;;;;;;35.58;20.10;;;2.10;99.90;;;;;;5092767;28;20127;-71
2021/12/06 02:35:30;;;;;;;34.10;18.85;;;2.00;99.90;;;;;;5092830;28;20056;-70
2021/12/06 02:37:57;;;;;;;35.28;19.17;;;2.00;99.90;;;;;;5091875;28;20083;-70
2021/12/06 02:40:29;;;;;;;36.65;20.25;;;2.10;99.90;;;;;;5092661;28;20056;-70
2021/12/06 02:42:56;;;;;;;37.75;20.50;;;2.00;99.90;;;;;;5108616;28;20096;-70
2021/12/06 02:45:25;;;;;;;37.28;20.75;;;2.00;99.90;;;;;;5112365;28;20083;-70
2021/12/06 02:47:53;;;;;;;37.75;20.08;;;2.00;99.90;;;;;;5112625;28;20052;-71
2021/12/06 02:50:23;;;;;;;34.45;19.85;;;2.00;99.90;;;;;;5112465;28;20067;-71
2021/12/06 02:52:50;;;;;;;39.78;22.90;;;2.00;99.90;;;;;;5120518;27;20514;-71
2021/12/06 02:55:31;;;;;;;37.05;19.58;;;2.00;99.90;;;;;;5150761;27;20051;-71
2021/12/06 02:58:01;;;;;;;;;;;2.00;99.90;;;;;;5153734;27;20053;-71
2021/12/06 03:00:29;;;;;;;36.92;21.30;;;2.00;99.90;;;;;;5154078;27;20010;-71
2021/12/06 03:02:56;;;;;;;40.15;20.70;;;2.00;99.90;;;;;;5153643;27;20145;-71
2021/12/06 03:05:23;;;;;;;39.47;21.65;;;2.00;99.90;;;;;;5153287;27;20490;-71
2021/12/06 03:07:57;;;;;;;38.22;20.92;;;2.00;99.90;;;;;;5153715;27;20459;-71
2021/12/06 03:10:24;;;;;;;40.53;21.70;;;2.00;99.90;;;;;;5153852;27;20050;-71
2021/12/06 03:12:51;;;;;;;42.28;21.35;;;2.00;99.90;;;;;;5151352;27;20085;-71
2021/12/06 03:15:19;;;;;;;41.42;21.73;;;2.00;99.90;;;;;;5153709;27;20098;-71
2021/12/06 03:17:47;;;;;;;38.53;21.23;;;2.00;99.90;;;;;;5153777;27;20421;-71
2021/12/06 03:20:16;;;;;;;39.90;21.05;;;2.00;99.90;;;;;;5152749;27;20486;-71
2021/12/06 03:22:44;;;;;;;39.58;20.55;;;2.10;99.90;;;;;;5152891;27;20066;-71
2021/12/06 03:25:13;;;;;;;39.15;20.33;;;2.10;99.90;;;;;;5153817;27;20137;-71
2021/12/06 03:27:40;;;;;;;38.65;20.83;;;2.10;99.90;;;;;;5153432;27;20112;-71
2021/12/06 03:30:10;;;;;;;39.38;20.70;;;2.10;99.90;;;;;;5153366;27;20089;-71
2021/12/06 03:32:38;;;;;;;37.70;20.45;;;2.10;99.90;;;;;;5139322;27;20440;-71
2021/12/06 03:35:07;;;;;;;39.72;20.38;;;2.10;99.90;;;;;;5112143;28;20126;-71
2021/12/06 03:37:34;;;;;;;38.22;20.75;;;2.10;99.90;;;;;;5112020;28;20130;-71
2021/12/06 03:40:01;;;;;;;37.67;21.77;;;2.30;99.90;;;;;;5131054;27;20082;-71
2021/12/06 03:42:28;;;;;;;37.30;19.30;;;2.10;99.90;;;;;;5132167;27;20079;-71
2021/12/06 03:44:55;;;;;;;37.88;21.48;;;2.10;99.90;;;;;;5132767;27;20145;-71
2021/12/06 03:47:25;;;;;;;34.33;18.52;;;2.20;99.90;;;;;;5131596;27;20134;-71
2021/12/06 03:49:53;;;;;;;35.67;20.23;;;2.20;99.90;;;;;;5132323;27;20138;-71
2021/12/06 03:52:21;;;;;;;32.58;19.15;;;2.20;99.90;;;;;;5142963;27;20043;-71
2021/12/06 03:54:49;;;;;;;34.40;19.52;;;2.20;99.90;;;;;;5152377;27;20510;-71
2021/12/06 03:57:16;;;;;;;36.03;19.50;;;2.20;99.90;;;;;;5154021;27;20129;-72
2021/12/06 03:59:43;;;;;;;37.38;20.48;;;2.30;99.90;;;;;;5153426;27;20511;-71
2021/12/06 04:02:11;;;;;;;38.92;21.55;;;2.30;99.90;;;;;;5151822;27;20103;-70
2021/12/06 04:04:39;;;;;;;36.20;19.67;;;2.20;99.90;;;;;;5153378;27;20483;-71
2021/12/06 04:07:08;;;;;;;35.53;19.63;;;2.30;99.90;;;;;;5153096;27;20522;-71
2021/12/06 04:09:35;;;;;;;32.28;18.65;;;2.30;99.90;;;;;;5152428;27;20134;-70
2021/12/06 04:12:02;;;;;;;33.83;18.90;;;2.20;99.90;;;;;;5152859;27;20081;-71
2021/12/06 04:14:29;;;;;;;32.63;18.55;;;2.20;99.90;;;;;;5152516;27;20125;-70
2021/12/06 04:16:56;;;;;;;36.28;18.40;;;2.30;99.90;;;;;;5152399;27;20081;-70
2021/12/06 04:19:23;;;;;;;32.42;19.83;;;2.30;99.90;;;;;;5153260;27;20054;-70
2021/12/06 04:21:50;;;;;;;32.35;18.08;;;2.30;99.90;;;;;;5143107;27;20468;-70
2021/12/06 04:24:19;;;;;;;33.60;19.02;;;2.30;99.90;;;;;;5111603;28;20112;-71
2021/12/06 04:26:46;;;;;;;33.10;18.60;;;2.30;99.90;;;;;;5128490;28;20185;-71
2021/12/06 04:29:14;;;;;;;36.55;19.92;;;2.20;99.90;;;;;;5110894;28;20586;-71
2021/12/06 04:31:43;;;;;;;33.55;18.73;;;2.30;99.90;;;;;;5113005;28;20086;-70
2021/12/06 04:34:10;;;;;;;38.65;20.90;;;2.30;99.90;;;;;;5115434;28;20079;-71
2021/12/06 04:36:37;;;;;;;42.17;21.13;;;2.30;99.90;;;;;;5114700;28;20083;-71
2021/12/06 04:39:07;;;;;;;37.60;20.25;;;2.30;99.90;;;;;;5115580;28;20159;-71
2021/12/06 04:41:35;;;;;;;38.80;20.05;;;2.30;99.90;;;;;;5120684;27;20067;-71
2021/12/06 04:44:03;;;;;;;38.45;20.52;;;2.30;99.90;;;;;;5135291;27;20082;-71
2021/12/06 04:46:29;;;;;;;39.10;19.92;;;2.30;99.90;;;;;;5135631;27;20138;-70
2021/12/06 04:48:56;;;;;;;40.08;21.80;;;2.30;99.90;;;;;;5136091;27;20082;-71
2021/12/06 04:51:24;;;;;;;41.92;21.15;;;2.30;99.90;;;;;;5137624;27;20079;-71
2021/12/06 04:53:52;;;;;;;46.55;23.40;;;2.20;99.90;;;;;;5156373;27;20086;-70
2021/12/06 04:56:23;;;;;;;39.53;21.85;;;2.30;99.90;;;;;;5156282;27;20129;-71
2021/12/06 04:58:56;;;;;;;42.63;21.23;;;2.20;99.90;;;;;;5155816;27;20082;-71
2021/12/06 05:01:28;;;;;;;40.92;21.25;;;2.30;99.90;;;;;;5155612;27;20078;-71
2021/12/06 05:03:55;;;;;;;37.92;20.55;;;2.30;99.90;;;;;;5155464;27;20046;-70
2021/12/06 05:06:33;;;;;;;40.42;22.52;;;2.30;99.90;;;;;;5155847;27;20082;-70
2021/12/06 05:09:05;;;;;;;43.03;22.05;;;2.30;99.90;;;;;;5156191;27;20137;-70
2021/12/06 05:11:32;;;;;;;41.35;20.42;;;2.30;99.90;;;;;;5155576;27;20085;-71
2021/12/06 05:14:02;;;;;;;43.38;21.63;;;2.30;99.90;;;;;;5156066;27;20090;-70
2021/12/06 05:16:29;;;;;;;44.42;21.92;;;2.30;99.90;;;;;;5155771;27;20053;-70
2021/12/06 05:18:56;;;;;;;41.65;21.83;;;2.30;99.90;;;;;;5155280;27;20137;-70
2021/12/06 05:21:23;;;;;;;41.85;21.10;;;2.30;99.90;;;;;;5150691;27;20071;-71
2021/12/06 05:23:50;;;;;;;45.05;22.13;;;2.30;99.90;;;;;;5134927;27;20180;-71
2021/12/06 05:26:17;;;;;;;46.53;22.73;;;2.30;99.90;;;;;;5134660;27;20087;-70
2021/12/06 05:28:46;;;;;;;42.00;22.00;;;2.30;99.90;;;;;;5134946;27;20100;-70
2021/12/06 05:31:17;;;;;;;47.58;23.80;;;2.30;99.90;;;;;;5134926;27;20047;-70
2021/12/06 05:33:46;;;;;;;44.92;21.45;;;2.30;99.90;;;;;;5134374;27;20058;-71
2021/12/06 05:36:14;;;;;;;41.85;21.75;;;2.30;99.90;;;;;;5134807;27;20054;-71
2021/12/06 05:38:41;;;;;;;37.88;20.05;;;2.30;99.90;;;;;;5132969;27;20055;-70
2021/12/06 05:41:08;;;;;;;45.47;23.77;;;2.60;99.90;;;;;;5121322;27;20048;-70
2021/12/06 05:43:35;;;;;;;50.50;23.83;;;2.40;99.90;;;;;;5119817;27;20514;-70
2021/12/06 05:46:03;;;;;;;50.22;23.85;;;2.40;99.90;;;;;;5114680;27;20039;-70
2021/12/06 05:48:31;;;;;;;47.80;23.88;;;2.40;99.90;;;;;;5126928;27;20503;-69
2021/12/06 05:50:58;;;;;;;47.67;23.92;;;2.40;99.90;;;;;;5129546;27;20056;-70
2021/12/06 05:53:26;;;;;;;48.45;24.20;;;2.40;99.90;;;;;;5128866;27;20112;-70
2021/12/06 05:55:53;;;;;;;50.40;25.58;;;2.40;99.90;;;;;;5122944;27;20051;-70
2021/12/06 05:58:22;;;;;;;46.45;23.60;;;2.40;99.90;;;;;;5132678;27;20086;-70
2021/12/06 06:00:50;;;;;;;45.00;23.70;;;2.40;99.90;;;;;;5132999;27;20129;-70
2021/12/06 06:03:17;;;;;;;44.17;23.05;;;2.40;99.90;;;;;;5125996;27;20043;-71
2021/12/06 06:05:46;;;;;;;43.65;23.08;;;2.30;99.90;;;;;;5135557;27;20070;-70
2021/12/06 06:08:13;;;;;;;52.83;23.60;;;2.30;99.90;;;;;;5136723;27;20091;-70
2021/12/06 06:10:40;;;;;;;51.70;25.50;;;2.30;99.90;;;;;;5122214;27;20086;-70
2021/12/06 06:13:08;;;;;;;44.42;22.58;;;2.30;99.90;;;;;;5125360;27;20138;-71
2021/12/06 06:15:36;;;;;;;48.67;24.15;;;2.30;99.90;;;;;;5129826;27;20055;-70
2021/12/06 06:18:05;;;;;;;47.15;22.10;;;2.30;99.90;;;;;;5126879;27;20054;-71
2021/12/06 06:20:36;;;;;;;46.42;22.42;;;2.30;99.90;;;;;;5120759;27;20088;-70
2021/12/06 06:23:04;;;;;;;47.30;22.77;;;2.30;99.90;;;;;;5123089;27;20575;-71
2021/12/06 06:25:32;;;;;;;50.78;23.83;;;2.20;99.90;;;;;;5123561;27;20046;-70
2021/12/06 06:27:59;;;;;;;49.97;23.42;;;2.20;99.90;;;;;;5133992;27;20043;-70
2021/12/06 06:30:26;;;;;;;47.22;23.13;;;2.20;99.90;;;;;;5118259;27;20125;-70
2021/12/06 06:32:53;;;;;;;40.80;18.75;;;2.20;99.90;;;;;;5125895;27;20127;-70
2021/12/06 06:35:21;;;;;;;42.85;21.00;;;2.20;99.90;;;;;;5123523;27;20138;-70
2021/12/06 06:37:48;;;;;;;45.65;23.00;;;2.20;99.90;;;;;;5121271;27;20463;-70
2021/12/06 06:40:17;;;;;;;45.42;21.38;;;2.20;99.90;;;;;;5129921;27;20415;-72
2021/12/06 06:42:44;;;;;;;47.17;22.25;;;2.30;99.90;;;;;;5124765;27;20085;-70
2021/12/06 06:45:14;;;;;;;49.65;22.90;;;2.20;99.90;;;;;;5123375;27;20120;-70
2021/12/06 06:47:41;;;;;;;47.85;22.80;;;2.20;99.90;;;;;;5131027;27;20082;-70
2021/12/06 06:50:09;;;;;;;48.72;23.23;;;2.20;99.90;;;;;;5126041;27;20126;-70
2021/12/06 06:52:36;;;;;;;48.50;22.20;;;2.20;99.90;;;;;;5129464;27;20043;-70
2021/12/06 06:55:05;;;;;;;51.83;23.02;;;2.20;99.90;;;;;;5121855;27;20051;-70
2021/12/06 06:57:33;;;;;;;46.05;21.67;;;2.20;99.90;;;;;;5123053;27;20449;-71
2021/12/06 07:00:00;;;;;;;43.20;21.58;;;2.20;99.90;;;;;;5122355;27;20522;-71
2021/12/06 07:02:27;;;;;;;44.67;21.35;;;2.20;99.90;;;;;;5125931;27;20085;-71
2021/12/06 07:04:54;;;;;;;49.72;22.42;;;2.20;99.90;;;;;;5123645;27;20129;-70
2021/12/06 07:07:20;;;;;;;50.15;23.70;;;2.20;99.90;;;;;;5128826;27;20055;-70
2021/12/06 07:09:47;;;;;;;42.80;21.25;;;2.20;99.90;;;;;;5120835;27;20241;-70
2021/12/06 07:12:17;;;;;;;45.28;22.90;;;2.20;99.90;;;;;;5113704;27;20075;-70
2021/12/06 07:14:47;;;;;;;49.10;21.40;;;2.20;99.90;;;;;;5114936;27;20062;-70
2021/12/06 07:17:15;;;;;;;41.85;21.73;;;2.20;99.90;;;;;;5114682;27;20074;-70
2021/12/06 07:19:42;;;;;;;35.85;19.23;;;2.20;99.90;;;;;;5113803;27;20384;-69
2021/12/06 07:22:10;;;;;;;41.70;19.20;;;2.10;99.90;;;;;;5115724;27;20055;-70
2021/12/06 07:24:37;;;;;;;38.70;20.80;;;2.10;99.90;;;;;;5138603;27;20854;-70
2021/12/06 07:27:05;;;;;;;42.45;21.80;;;2.10;99.90;;;;;;5122120;27;20051;-69
2021/12/06 07:29:33;;;;;;;42.83;19.55;;;2.10;99.90;;;;;;5124838;27;20075;-71
2021/12/06 07:32:02;;;;;;;37.28;19.23;;;2.10;99.90;;;;;;5147424;27;20041;-71
2021/12/06 07:34:29;;;;;;;38.58;19.08;;;2.10;99.90;;;;;;5123831;27;20087;-72
2021/12/06 07:36:56;;;;;;;46.17;20.55;;;2.00;99.90;;;;;;5125879;27;20075;-72
2021/12/06 07:39:23;;;;;;;38.85;20.35;;;2.00;99.90;;;;;;5125766;27;20216;-70
2021/12/06 07:41:51;;;;;;;42.28;20.08;;;2.00;99.90;;;;;;5131129;27;20134;-70
2021/12/06 07:44:18;;;;;;;42.30;20.75;;;2.10;99.90;;;;;;5121440;27;20137;-71
2021/12/06 07:46:46;;;;;;;47.92;21.27;;;2.00;99.90;;;;;;5123954;27;20137;-71
2021/12/06 07:49:15;;;;;;;42.08;20.60;;;2.10;99.90;;;;;;5121925;27;20047;-71
2021/12/06 07:51:41;;;;;;;42.22;20.98;;;2.10;99.90;;;;;;5116031;27;20093;-71
2021/12/06 07:54:08;;;;;;;44.92;20.98;;;2.10;99.90;;;;;;5128651;27;20118;-71
2021/12/06 07:56:35;;;;;;;42.70;21.67;;;2.10;99.90;;;;;;5129994;27;20108;-70
2021/12/06 07:59:02;;;;;;;48.20;20.48;;;2.10;99.90;;;;;;5130457;27;20055;-70
2021/12/06 08:01:29;;;;;;;39.03;19.73;;;2.10;99.90;;;;;;5129460;27;20138;-70
2021/12/06 08:03:58;;;;;;;41.95;19.88;;;2.20;99.90;;;;;;5132222;28;20186;-70
2021/12/06 08:06:27;;;;;;;43.95;21.30;;;2.10;99.90;;;;;;5131953;27;20483;-71
2021/12/06 08:08:54;;;;;;;44.42;20.38;;;2.20;99.90;;;;;;5131639;27;20100;-72
2021/12/06 08:11:22;;;;;;;42.25;21.80;;;2.20;99.90;;;;;;5132555;28;20048;-71
2021/12/06 08:13:53;;;;;;;51.95;22.38;;;2.20;99.90;;;;;;5132061;28;20482;-71
2021/12/06 08:16:23;;;;;;;44.38;20.60;;;2.20;99.90;;;;;;5129827;27;20054;-70
2021/12/06 08:18:50;;;;;;;44.65;21.33;;;2.20;99.90;;;;;;5114850;27;20131;-72
2021/12/06 08:21:19;;;;;;;44.90;21.42;;;2.20;99.90;;;;;;5121217;27;20088;-72
2021/12/06 08:23:49;;;;;;;44.08;20.00;;;2.20;99.90;;;;;;5121842;27;20134;-71
2021/12/06 08:26:18;;;;;;;40.70;20.00;;;2.40;99.90;;;;;;5119229;27;20051;-72
2021/12/06 08:28:45;;;;;;;44.63;20.17;;;2.30;99.90;;;;;;5126503;27;20130;-71
2021/12/06 08:31:13;;;;;;;43.92;20.00;;;2.60;99.90;;;;;;5127407;27;20195;-72
2021/12/06 08:33:41;;;;;;;42.20;19.85;;;2.30;99.90;;;;;;5113769;27;20130;-72
2021/12/06 08:36:10;;;;;;;43.95;21.55;;;2.30;99.90;;;;;;5126907;27;20122;-71
2021/12/06 08:38:39;;;;;;;49.65;22.25;;;2.30;99.90;;;;;;5112055;28;20130;-72
2021/12/06 08:41:10;;;;;;;45.83;21.63;;;2.30;99.90;;;;;;5121130;28;20465;-71
2021/12/06 08:43:37;;;;;;;;;;;2.40;99.90;;;;;;5122988;28;20130;-71
2021/12/06 08:46:06;;;;;;;39.88;18.95;;;2.30;99.90;;;;;;5119548;27;20010;-71
2021/12/06 08:48:35;;;;;;;40.00;19.77;;;2.30;99.90;;;;;;5126305;27;20473;-72
2021/12/06 08:51:04;;;;;;;40.47;20.85;;;2.40;99.90;;;;;;5131031;27;20082;-71
2021/12/06 08:53:31;;;;;;;39.47;19.67;;;2.40;99.90;;;;;;5124435;27;20543;-71
2021/12/06 08:55:58;;;;;;;42.97;20.17;;;2.40;99.90;;;;;;5128685;28;20506;-71
2021/12/06 08:58:27;;;;;;;38.78;19.42;;;2.40;99.90;;;;;;5120998;28;20138;-71
2021/12/06 09:00:55;;;;;;;43.88;18.90;;;2.60;99.90;;;;;;5126148;27;20133;-71
2021/12/06 09:03:22;;;;;;;44.25;21.27;;;2.40;99.90;;;;;;5120593;27;20047;-71
2021/12/06 09:05:54;;;;;;;44.90;19.35;;;2.50;99.90;;;;;;5129432;27;20415;-70
2021/12/06 09:08:21;;;;;;;44.72;20.75;;;2.60;99.90;;;;;;5134537;27;20047;-70
2021/12/06 09:10:50;;;;;;;44.85;21.83;;;2.50;99.90;;;;;;5117300;28;20051;-70
2021/12/06 09:13:18;;;;;;;41.72;19.17;;;2.60;99.90;;;;;;5122860;27;20057;-71
2021/12/06 09:15:46;;;;;;;40.75;18.77;;;2.60;99.90;;;;;;5128483;27;20074;-71
2021/12/06 09:18:13;;;;;;;45.58;20.45;;;2.60;99.90;;;;;;5129936;27;20456;-71
2021/12/06 09:20:43;;;;;;;47.80;20.17;;;2.70;99.90;;;;;;5128220;27;20129;-71
2021/12/06 09:23:12;;;;;;;48.38;20.67;;;2.70;99.90;;;;;;5153061;27;20558;-71
2021/12/06 09:25:40;;;;;;;41.95;18.38;;;2.80;99.90;;;;;;5120775;27;20525;-71
2021/12/06 09:28:07;;;;;;;39.15;17.58;;;2.80;99.90;;;;;;5101953;27;20124;-71
2021/12/06 09:30:35;;;;;;;35.90;17.15;;;3.30;99.90;;;;;;5126178;27;20126;-71
2021/12/06 09:33:05;;;;;;;36.72;18.02;;;2.90;99.90;;;;;;5123316;27;20070;-70
2021/12/06 09:35:34;;;;;;;34.30;16.17;;;2.90;99.90;;;;;;5132221;27;20052;-70
2021/12/06 09:38:01;;;;;;;36.05;17.13;;;2.90;99.90;;;;;;5129682;27;20096;-71
2021/12/06 09:40:30;;;;;;;35.53;18.35;;;3.00;99.90;;;;;;5123221;27;20562;-71
2021/12/06 09:43:00;;;;;;;39.22;18.13;;;2.90;99.90;;;;;;5133655;27;20047;-70
2021/12/06 09:45:30;;;;;;;34.92;16.73;;;2.90;99.90;;;;;;5119550;27;20093;-71
2021/12/06 09:47:59;;;;;;;35.53;17.33;;;3.00;99.90;;;;;;5123373;27;20531;-71
2021/12/06 09:50:29;;;;;;;30.60;16.52;;;3.00;99.90;;;;;;5128172;27;20046;-70
2021/12/06 09:52:58;;;;;;;;;;;3.00;99.90;;;;;;5128761;27;20134;-71
2021/12/06 09:55:25;;;;;;;32.50;15.27;;;2.90;99.90;;;;;;5125419;27;19984;-72
2021/12/06 09:57:52;;;;;;;29.50;16.00;;;2.90;99.90;;;;;;5119418;27;20138;-72
2021/12/06 10:00:24;;;;;;;33.20;14.93;;;2.90;99.90;;;;;;5125327;27;20082;-72
2021/12/06 10:02:51;;;;;;;28.38;15.63;;;2.90;99.90;;;;;;5132624;27;20072;-72
2021/12/06 10:05:19;;;;;;;30.10;14.40;;;2.80;99.90;;;;;;5122814;27;20158;-72
2021/12/06 10:07:47;;;;;;;29.75;14.90;;;2.80;99.90;;;;;;5125151;27;20047;-72
2021/12/06 10:10:15;;;;;;;31.27;14.68;;;2.80;99.90;;;;;;5122497;27;20081;-72
2021/12/06 10:12:43;;;;;;;32.03;14.30;;;2.90;99.90;;;;;;5127607;27;20443;-72
2021/12/06 10:15:11;;;;;;;33.20;15.73;;;2.80;99.90;;;;;;5118909;27;20051;-72
2021/12/06 10:17:37;;;;;;;29.42;15.30;;;2.80;99.90;;;;;;5119707;27;20130;-72
2021/12/06 10:20:06;;;;;;;29.20;14.32;;;2.80;99.90;;;;;;5121066;27;20130;-72
2021/12/06 10:22:33;;;;;;;26.35;14.43;;;2.80;99.90;;;;;;5124700;27;20058;-72
2021/12/06 10:25:02;;;;;;;31.92;16.48;;;2.80;99.90;;;;;;5128024;27;20508;-73
2021/12/06 10:27:29;;;;;;;39.35;15.48;;;2.80;99.90;;;;;;5131235;27;20504;-72
2021/12/06 10:30:00;;;;;;;32.45;15.00;;;2.90;99.90;;;;;;5139177;27;20444;-73
2021/12/06 10:32:34;;;;;;;32.05;16.23;;;2.80;99.90;;;;;;5126613;27;20059;-72
2021/12/06 10:35:04;;;;;;;31.55;16.55;;;2.80;99.90;;;;;;5123471;27;20055;-70
2021/12/06 10:37:35;;;;;;;29.52;14.02;;;2.80;99.90;;;;;;5116640;27;20086;-72
2021/12/06 10:40:06;;;;;;;31.02;16.58;;;2.80;99.90;;;;;;5134536;27;20494;-72
2021/12/06 10:42:35;;;;;;;;;;;2.70;99.90;;;;;;5121399;27;20130;-73
2021/12/06 10:45:09;;;;;;;30.15;14.45;;;2.70;99.90;;;;;;5125521;27;19962;-72
2021/12/06 10:47:36;;;;;;;25.38;13.95;;;2.70;99.90;;;;;;5122758;27;20443;-70
2021/12/06 10:50:11;;;;;;;28.67;15.45;;;3.10;99.90;;;;;;5120340;27;20128;-71
2021/12/06 10:52:49;;;;;;;27.95;14.65;;;2.80;99.90;;;;;;5137966;27;20042;-71
2021/12/06 10:55:19;;;;;;;27.58;14.25;;;2.80;99.90;;;;;;5124306;27;20048;-71
2021/12/06 10:57:54;;;;;;;27.95;14.02;;;2.80;99.90;;;;;;5116812;27;20051;-71
2021/12/06 11:00:41;;;;;;;30.95;15.95;;;2.80;99.90;;;;;;5124593;27;20057;-71
2021/12/06 11:03:24;;;;;;;32.08;14.27;;;2.80;99.90;;;;;;5125669;27;20051;-70
2021/12/06 11:05:55;;;;;;;25.05;14.15;;;2.80;99.90;;;;;;5135567;27;20464;-71
2021/12/06 11:08:23;;;;;;;27.38;14.23;;;2.80;99.90;;;;;;5127875;27;20071;-72
2021/12/06 11:10:53;;;;;;;27.30;14.02;;;2.70;99.90;;;;;;5130112;27;20046;-71
2021/12/06 11:13:23;;;;;;;29.20;15.23;;;2.70;99.90;;;;;;5126941;27;20101;-71
2021/12/06 11:16:01;;;;;;;28.92;14.75;;;2.70;99.90;;;;;;5139168;27;20049;-71
2021/12/06 11:18:33;;;;;;;32.47;15.38;;;2.70;99.90;;;;;;5133692;27;20442;-71
2021/12/06 11:21:00;;;;;;;28.85;14.95;;;2.70;99.90;;;;;;5132091;27;20100;-71
2021/12/06 11:23:27;;;;;;;30.13;16.13;;;2.70;99.90;;;;;;5119187;27;20320;-71
2021/12/06 11:25:57;;;;;;;31.73;16.67;;;2.70;99.90;;;;;;5128470;27;20130;-69
2021/12/06 11:28:27;;;;;;;36.78;18.40;;;2.80;99.90;;;;;;5126112;27;20078;-70
2021/12/06 11:30:59;;;;;;;38.67;18.70;;;2.80;99.90;;;;;;5132715;27;20396;-70
2021/12/06 11:33:31;;;;;;;45.63;23.05;;;2.80;99.90;;;;;;5130199;27;20107;-71
2021/12/06 11:35:58;;;;;;;42.65;21.65;;;2.80;99.90;;;;;;5132848;27;20059;-71
2021/12/06 11:38:28;;;;;;;45.33;20.85;;;2.80;99.90;;;;;;5126030;27;20460;-71
2021/12/06 11:40:59;;;;;;;43.67;22.52;;;2.80;99.90;;;;;;5116164;27;20072;-72
2021/12/06 11:43:26;;;;;;;;;;;2.80;99.90;;;;;;5130855;27;20531;-71
2021/12/06 11:45:56;;;;;;;38.05;17.80;;;2.70;99.90;;;;;;5123331;27;20010;-71
2021/12/06 11:48:26;;;;;;;36.50;19.27;;;2.80;99.90;;;;;;5114574;27;20043;-72
2021/12/06 11:50:56;;;;;;;35.30;17.08;;;2.80;99.90;;;;;;5122531;27;20055;-72
2021/12/06 11:53:26;;;;;;;32.75;17.73;;;2.80;99.90;;;;;;5121663;27;20126;-71
2021/12/06 11:55:56;;;;;;;34.75;17.98;;;2.90;99.90;;;;;;5119146;27;20078;-71
2021/12/06 11:58:29;;;;;;;30.02;16.27;;;3.00;99.90;;;;;;5127123;27;20506;-71
2021/12/06 12:01:08;;;;;;;32.20;16.20;;;3.00;99.90;;;;;;5130568;27;20123;-71
2021/12/06 12:03:36;;;;;;;33.70;17.50;;;3.10;99.90;;;;;;5135448;27;20163;-71
2021/12/06 12:06:20;;;;;;;29.95;16.33;;;3.10;99.90;;;;;;5130927;27;20550;-71
2021/12/06 12:08:47;;;;;;;32.10;15.48;;;3.10;99.90;;;;;;5118738;27;20078;-71
2021/12/06 12:11:14;;;;;;;32.33;15.82;;;3.20;99.90;;;;;;5128262;28;20093;-71
2021/12/06 12:13:43;;;;;;;26.50;14.57;;;3.30;99.90;;;;;;5123470;27;20051;-71
2021/12/06 12:16:12;;;;;;;27.27;13.25;;;3.40;99.90;;;;;;5128938;27;20517;-71
2021/12/06 12:18:42;;;;;;;23.75;13.25;;;3.30;99.90;;;;;;5132974;27;20490;-72
2021/12/06 12:21:10;;;;;;;23.98;13.60;;;3.30;99.90;;;;;;5120043;27;20454;-70
2021/12/06 12:23:38;;;;;;;24.75;13.02;;;3.30;99.90;;;;;;5127094;27;20454;-71
2021/12/06 12:26:12;;;;;;;22.80;12.10;;;3.30;99.90;;;;;;5127624;27;20607;-71
2021/12/06 12:28:49;;;;;;;23.23;12.30;;;3.30;99.90;;;;;;5135897;27;20387;-72
2021/12/06 12:31:19;;;;;;;28.15;14.00;;;3.30;99.90;;;;;;5121586;27;20547;-72
2021/12/06 12:33:48;;;;;;;24.90;12.75;;;3.30;99.90;;;;;;5128315;28;20127;-72
2021/12/06 12:36:17;;;;;;;23.35;12.48;;;3.20;99.90;;;;;;5118034;27;20043;-71
2021/12/06 12:38:48;;;;;;;27.05;12.63;;;3.30;99.90;;;;;;5120551;27;20473;-71
2021/12/06 12:41:17;;;;;;;25.25;12.60;;;3.30;99.90;;;;;;5134857;27;20375;-71
2021/12/06 12:43:45;;;;;;;24.83;13.07;;;3.20;99.90;;;;;;5124187;27;20082;-71
2021/12/06 12:46:16;;;;;;;22.05;12.52;;;3.30;99.90;;;;;;5124315;27;20442;-71
2021/12/06 12:48:57;;;;;;;23.67;13.32;;;3.30;99.90;;;;;;5111313;28;20078;-71
2021/12/06 12:51:27;;;;;;;25.50;15.20;;;3.30;99.90;;;;;;5121126;28;20094;-71